createdAt,value
2018-06-17T00:02:18.691Z,23.55
2018-06-17T00:04:52.480Z,24.23
2018-06-17T00:07:26.434Z,23.85
2018-06-17T00:10:00.479Z,24.63
2018-06-17T00:12:34.578Z,24.15
2018-06-17T00:15:08.696Z,22.85
2018-06-17T00:17:43.165Z,25.92
2018-06-17T00:20:17.100Z,26.95
2018-06-17T00:22:50.995Z,24.07
2018-06-17T00:25:25.112Z,27.48
2018-06-17T00:27:58.860Z,25.57
2018-06-17T00:30:32.866Z,23.57
2018-06-17T00:33:06.612Z,25.95
2018-06-17T00:35:40.978Z,26.85
2018-06-17T00:38:14.828Z,26.65
2018-06-17T00:40:48.802Z,27.00
2018-06-17T00:43:23.108Z,30.60
2018-06-17T00:45:56.974Z,27.58
2018-06-17T00:48:31.099Z,25.27
2018-06-17T00:51:05.185Z,24.85
2018-06-17T00:53:39.180Z,28.38
2018-06-17T00:56:13.100Z,31.25
2018-06-17T00:58:47.006Z,27.95
2018-06-17T01:01:21.011Z,26.97
2018-06-17T01:03:55.048Z,28.35
2018-06-17T01:06:28.994Z,29.75
2018-06-17T01:09:03.475Z,28.20
2018-06-17T01:11:37.395Z,29.80
2018-06-17T01:14:11.168Z,31.37
2018-06-17T01:16:45.100Z,27.35
2018-06-17T01:19:19.008Z,30.03
2018-06-17T01:21:53.170Z,30.52
2018-06-17T01:24:27.183Z,33.37
2018-06-17T01:27:01.156Z,32.48
2018-06-17T01:29:36.035Z,29.85
2018-06-17T01:32:10.245Z,34.33
2018-06-17T01:34:44.224Z,31.73
2018-06-17T01:37:17.918Z,34.53
2018-06-17T01:39:52.425Z,31.93
2018-06-17T01:42:26.208Z,34.25
2018-06-17T01:45:00.602Z,32.45
2018-06-17T01:47:34.674Z,32.50
2018-06-17T01:50:08.483Z,38.30
2018-06-17T01:52:42.265Z,33.42
2018-06-17T01:55:16.464Z,35.75
2018-06-17T01:57:50.554Z,35.17
2018-06-17T02:00:24.828Z,33.17
2018-06-17T02:03:02.980Z,34.30
2018-06-17T02:05:42.683Z,33.90
2018-06-17T02:08:22.635Z,31.03
2018-06-17T02:11:02.044Z,31.73
2018-06-17T02:13:35.863Z,33.33
2018-06-17T02:16:10.030Z,34.33
2018-06-17T02:18:43.691Z,34.03
2018-06-17T02:21:17.649Z,37.75
2018-06-17T02:23:52.248Z,34.97
2018-06-17T02:26:26.073Z,37.05
2018-06-17T02:28:59.968Z,42.23
2018-06-17T02:31:34.012Z,38.43
2018-06-17T02:34:07.990Z,34.27
2018-06-17T02:36:42.024Z,42.03
2018-06-17T02:39:16.105Z,36.30
2018-06-17T02:41:49.941Z,35.77
2018-06-17T02:44:23.944Z,40.87
2018-06-17T02:47:03.073Z,38.17
2018-06-17T02:49:39.007Z,37.60
2018-06-17T02:52:18.611Z,35.07
2018-06-17T02:54:52.733Z,43.37
2018-06-17T02:57:26.851Z,34.40
2018-06-17T03:00:01.067Z,38.57
2018-06-17T03:02:35.134Z,32.03
2018-06-17T03:05:09.061Z,33.43
2018-06-17T03:07:43.262Z,31.87
2018-06-17T03:10:17.169Z,32.00
2018-06-17T03:12:50.968Z,34.80
2018-06-17T03:15:25.612Z,37.77
2018-06-17T03:17:59.624Z,35.57
2018-06-17T03:20:34.223Z,35.55
2018-06-17T03:23:08.315Z,34.40
2018-06-17T03:25:47.694Z,34.40
2018-06-17T03:28:27.328Z,36.40
2018-06-17T03:31:07.061Z,30.70
2018-06-17T03:33:52.133Z,33.60
2018-06-17T03:36:26.121Z,33.40
2018-06-17T03:38:59.968Z,35.37
2018-06-17T03:41:33.880Z,31.47
2018-06-17T03:44:07.815Z,29.33
2018-06-17T03:46:41.776Z,31.57
2018-06-17T03:49:15.712Z,30.33
2018-06-17T03:51:49.849Z,33.00
2018-06-17T03:54:23.661Z,31.03
2018-06-17T03:56:57.934Z,35.37
2018-06-17T03:59:31.908Z,28.57
2018-06-17T04:02:05.945Z,33.53
2018-06-17T04:04:45.606Z,31.57
2018-06-17T04:07:19.513Z,29.53
2018-06-17T04:09:53.599Z,33.90
2018-06-17T04:12:27.762Z,30.47
2018-06-17T04:15:01.451Z,25.10
2018-06-17T04:17:35.378Z,28.10
2018-06-17T04:20:09.163Z,25.27
2018-06-17T04:22:43.034Z,24.30
2018-06-17T04:25:17.149Z,18.13
2018-06-17T04:27:51.060Z,21.93
2018-06-17T04:30:24.859Z,19.67
2018-06-17T04:32:59.224Z,19.43
2018-06-17T04:35:32.979Z,16.27
2018-06-17T04:38:06.804Z,13.87
2018-06-17T04:40:40.914Z,13.83
2018-06-17T04:43:15.404Z,11.07
2018-06-17T04:45:49.520Z,16.43
2018-06-17T04:48:24.460Z,14.33
2018-06-17T04:50:58.231Z,13.93
2018-06-17T04:53:32.038Z,19.13
2018-06-17T04:56:06.100Z,16.73
2018-06-17T04:58:39.849Z,13.70
2018-06-17T05:01:13.741Z,14.13
2018-06-17T05:03:48.416Z,12.47
2018-06-17T05:06:22.319Z,13.40
2018-06-17T05:08:56.360Z,16.57
2018-06-17T05:11:30.800Z,17.03
2018-06-17T05:14:05.043Z,15.23
2018-06-17T05:16:38.859Z,12.97
2018-06-17T05:19:12.943Z,10.93
2018-06-17T05:21:46.915Z,17.60
2018-06-17T05:24:21.074Z,13.30
2018-06-17T05:26:54.916Z,10.97
2018-06-17T05:29:28.694Z,7.83
2018-06-17T05:32:03.085Z,15.53
2018-06-17T05:34:36.988Z,11.87
2018-06-17T05:37:10.891Z,11.90
2018-06-17T05:39:44.860Z,10.93
2018-06-17T05:42:18.754Z,9.50
2018-06-17T05:44:52.827Z,9.55
2018-06-17T05:47:26.851Z,6.90
2018-06-17T05:50:00.919Z,6.30
2018-06-17T05:52:34.891Z,10.73
2018-06-17T05:55:08.824Z,6.27
2018-06-17T05:57:42.569Z,4.60
2018-06-17T06:00:16.512Z,6.47
2018-06-17T06:02:50.500Z,9.20
2018-06-17T06:05:24.402Z,4.77
2018-06-17T06:07:58.879Z,7.67
2018-06-17T06:10:33.000Z,7.47
2018-06-17T06:13:06.855Z,4.67
2018-06-17T06:15:41.023Z,3.83
2018-06-17T06:18:14.900Z,4.47
2018-06-17T06:20:49.079Z,5.67
2018-06-17T06:23:22.901Z,4.00
2018-06-17T06:25:57.105Z,4.97
2018-06-17T06:28:31.047Z,5.58
2018-06-17T06:31:05.378Z,6.75
2018-06-17T06:33:39.956Z,4.08
2018-06-17T06:36:13.873Z,4.28
2018-06-17T06:38:47.940Z,7.62
2018-06-17T06:41:21.846Z,6.25
2018-06-17T06:43:56.607Z,5.17
2018-06-17T06:46:30.404Z,5.42
2018-06-17T06:49:04.275Z,3.65
2018-06-17T06:51:38.265Z,3.70
2018-06-17T06:54:12.479Z,4.33
2018-06-17T06:56:46.526Z,5.50
2018-06-17T06:59:20.308Z,4.05
2018-06-17T07:02:05.642Z,2.33
2018-06-17T07:04:51.183Z,4.67
2018-06-17T07:07:36.705Z,4.15
2018-06-17T07:10:23.112Z,3.75
2018-06-17T07:12:57.011Z,3.77
2018-06-17T07:15:42.365Z,2.72
2018-06-17T07:18:31.288Z,2.87
2018-06-17T07:21:05.487Z,3.98
2018-06-17T07:23:39.658Z,3.87
2018-06-17T07:26:30.313Z,3.15
2018-06-17T07:29:15.946Z,2.77
2018-06-17T07:31:49.776Z,2.75
2018-06-17T07:34:23.992Z,3.05
2018-06-17T07:36:58.431Z,3.40
2018-06-17T07:41:42.134Z,3.00
2018-06-17T07:44:15.909Z,1.98
2018-06-17T07:46:49.996Z,3.80
2018-06-17T07:49:37.550Z,3.90
2018-06-17T07:52:23.820Z,3.27
2018-06-17T07:54:58.164Z,3.55
2018-06-17T07:57:33.237Z,1.92
2018-06-17T08:00:07.496Z,1.60
2018-06-17T08:02:41.457Z,4.20
2018-06-17T08:05:15.622Z,3.37
2018-06-17T08:07:49.729Z,2.50
2018-06-17T08:10:23.575Z,4.85
2018-06-17T08:12:57.490Z,3.95
2018-06-17T08:15:31.380Z,3.17
2018-06-17T08:18:05.539Z,3.90
2018-06-17T08:20:39.756Z,4.87
2018-06-17T08:23:14.063Z,2.72
2018-06-17T08:25:48.079Z,3.42
2018-06-17T08:28:22.206Z,4.25
2018-06-17T08:30:56.336Z,3.95
2018-06-17T08:33:30.496Z,2.17
2018-06-17T08:36:04.435Z,5.80
2018-06-17T08:38:38.434Z,3.55
2018-06-17T08:41:12.815Z,3.17
2018-06-17T08:43:46.911Z,4.62
2018-06-17T08:46:21.176Z,6.20
2018-06-17T08:48:54.987Z,5.97
2018-06-17T08:51:29.724Z,2.95
2018-06-17T08:54:03.901Z,4.42
2018-06-17T08:56:38.289Z,3.60
2018-06-17T08:59:12.474Z,6.53
2018-06-17T09:01:46.400Z,3.67
2018-06-17T09:04:20.158Z,4.22
2018-06-17T09:06:54.514Z,5.30
2018-06-17T09:09:28.371Z,5.75
2018-06-17T09:12:02.306Z,5.50
2018-06-17T09:14:36.555Z,6.20
2018-06-17T09:17:10.910Z,6.92
2018-06-17T09:19:51.743Z,6.72
2018-06-17T09:22:25.602Z,6.35
2018-06-17T09:25:03.510Z,4.17
2018-06-17T09:27:37.724Z,8.50
2018-06-17T09:30:11.975Z,4.75
2018-06-17T09:32:46.021Z,4.40
2018-06-17T09:35:20.404Z,5.08
2018-06-17T09:37:54.459Z,5.72
2018-06-17T09:40:28.666Z,3.75
2018-06-17T09:43:02.955Z,6.30
2018-06-17T09:45:36.755Z,5.83
2018-06-17T09:48:10.760Z,3.05
2018-06-17T09:50:44.991Z,5.95
2018-06-17T09:53:19.431Z,7.10
2018-06-17T09:55:53.284Z,4.30
2018-06-17T09:58:27.068Z,4.22
2018-06-17T10:01:01.102Z,5.83
2018-06-17T10:03:35.265Z,5.20
2018-06-17T10:06:09.375Z,6.10
2018-06-17T10:08:43.500Z,5.50
2018-06-17T10:11:18.210Z,6.78
2018-06-17T10:13:52.405Z,4.50
2018-06-17T10:16:26.635Z,4.65
2018-06-17T10:19:00.688Z,5.03
2018-06-17T10:21:35.031Z,5.03
2018-06-17T10:24:08.900Z,4.65
2018-06-17T10:26:42.962Z,5.75
2018-06-17T10:29:16.831Z,4.22
2018-06-17T10:31:51.065Z,5.15
2018-06-17T10:34:24.712Z,5.95
2018-06-17T10:36:58.657Z,5.05
2018-06-17T10:39:32.847Z,6.28
2018-06-17T10:42:06.972Z,4.47
2018-06-17T10:44:41.011Z,5.72
2018-06-17T10:47:15.555Z,4.78
2018-06-17T10:49:49.904Z,5.67
2018-06-17T10:52:24.325Z,5.55
2018-06-17T10:54:58.462Z,7.45
2018-06-17T10:57:32.629Z,4.33
2018-06-17T11:00:07.641Z,4.50
2018-06-17T11:02:41.694Z,4.78
2018-06-17T11:05:15.843Z,4.95
2018-06-17T11:07:49.857Z,4.92
2018-06-17T11:10:24.292Z,4.10
2018-06-17T11:12:58.567Z,5.15
2018-06-17T11:15:32.626Z,6.35
2018-06-17T11:18:07.149Z,5.80
2018-06-17T11:20:41.305Z,4.95
2018-06-17T11:23:15.450Z,4.78
2018-06-17T11:25:49.541Z,4.62
2018-06-17T11:28:23.871Z,4.28
2018-06-17T11:30:59.585Z,3.80
2018-06-17T11:33:33.739Z,5.45
2018-06-17T11:36:07.750Z,3.83
2018-06-17T11:38:42.116Z,5.42
2018-06-17T11:41:16.502Z,5.00
2018-06-17T11:43:50.686Z,3.90
2018-06-17T11:46:29.430Z,5.65
2018-06-17T11:49:03.416Z,4.90
2018-06-17T11:51:38.631Z,4.08
2018-06-17T11:54:12.428Z,5.78
2018-06-17T11:56:46.786Z,7.97
2018-06-17T11:59:20.661Z,4.92
2018-06-17T12:01:54.836Z,6.78
2018-06-17T12:04:28.923Z,5.90
2018-06-17T12:07:02.976Z,4.35
2018-06-17T12:09:37.296Z,5.67
2018-06-17T12:12:11.459Z,4.67
2018-06-17T12:14:46.465Z,4.72
2018-06-17T12:17:20.624Z,4.62
2018-06-17T12:19:54.724Z,3.55
2018-06-17T12:22:29.023Z,5.72
2018-06-17T12:25:03.105Z,5.00
2018-06-17T12:27:37.054Z,4.95
2018-06-17T12:30:11.150Z,5.92
2018-06-17T12:32:45.457Z,6.10
2018-06-17T12:35:19.590Z,2.83
2018-06-17T12:37:53.695Z,3.95
2018-06-17T12:40:28.044Z,3.52
2018-06-17T12:43:02.199Z,5.25
2018-06-17T12:45:36.235Z,3.95
2018-06-17T12:48:10.266Z,6.22
2018-06-17T12:50:44.172Z,3.40
2018-06-17T12:53:18.052Z,4.03
2018-06-17T12:55:52.907Z,3.85
2018-06-17T12:58:27.316Z,4.87
2018-06-17T13:01:01.527Z,3.50
2018-06-17T13:03:35.481Z,6.22
2018-06-17T13:06:09.692Z,4.72
2018-06-17T13:08:43.808Z,5.60
2018-06-17T13:11:17.893Z,2.98
2018-06-17T13:13:51.854Z,8.45
2018-06-17T13:16:30.665Z,5.10
2018-06-17T13:19:05.248Z,4.33
2018-06-17T13:21:39.167Z,6.10
2018-06-17T13:24:13.272Z,5.00
2018-06-17T13:26:47.269Z,5.80
2018-06-17T13:29:21.719Z,9.43
2018-06-17T13:31:55.768Z,6.17
2018-06-17T13:34:29.968Z,5.65
2018-06-17T13:37:04.316Z,6.95
2018-06-17T13:39:38.549Z,6.85
2018-06-17T13:42:12.435Z,3.98
2018-06-17T13:44:46.586Z,5.62
2018-06-17T13:47:20.624Z,5.92
2018-06-17T13:49:54.808Z,6.50
2018-06-17T13:52:28.921Z,4.03
2018-06-17T13:55:02.966Z,6.35
2018-06-17T13:57:37.684Z,6.50
2018-06-17T14:00:11.730Z,5.60
2018-06-17T14:02:45.673Z,4.28
2018-06-17T14:05:19.865Z,7.35
2018-06-17T14:07:54.394Z,8.85
2018-06-17T14:10:28.525Z,8.13
2018-06-17T14:13:02.359Z,6.08
2018-06-17T14:15:36.664Z,6.22
2018-06-17T14:18:11.181Z,4.22
2018-06-17T14:20:45.205Z,9.03
2018-06-17T14:23:19.471Z,4.72
2018-06-17T14:25:53.344Z,7.45
2018-06-17T14:28:27.348Z,7.75
2018-06-17T14:31:01.375Z,6.05
2018-06-17T14:33:35.764Z,6.55
2018-06-17T14:36:10.059Z,8.93
2018-06-17T14:38:43.880Z,7.55
2018-06-17T14:41:19.084Z,4.83
2018-06-17T14:43:58.839Z,7.28
2018-06-17T14:46:38.442Z,7.70
2018-06-17T14:49:18.210Z,5.55
2018-06-17T14:51:57.695Z,6.37
2018-06-17T14:54:31.559Z,6.42
2018-06-17T14:57:05.762Z,3.75
2018-06-17T14:59:40.701Z,7.40
2018-06-17T15:02:14.725Z,4.00
2018-06-17T15:04:49.171Z,7.72
2018-06-17T15:07:23.722Z,9.95
2018-06-17T15:09:57.816Z,6.92
2018-06-17T15:12:31.759Z,6.22
2018-06-17T15:15:05.721Z,5.00
2018-06-17T15:17:39.983Z,6.42
2018-06-17T15:20:14.225Z,6.90
2018-06-17T15:22:48.066Z,6.00
2018-06-17T15:25:22.210Z,6.78
2018-06-17T15:27:56.572Z,5.00
2018-06-17T15:30:30.598Z,4.95
2018-06-17T15:33:10.469Z,7.22
2018-06-17T15:35:50.107Z,9.23
2018-06-17T15:38:29.783Z,6.50
2018-06-17T15:41:09.512Z,6.47
2018-06-17T15:43:43.461Z,6.65
2018-06-17T15:46:17.675Z,8.63
2018-06-17T15:48:51.480Z,7.40
2018-06-17T15:51:25.895Z,6.83
2018-06-17T15:53:59.890Z,5.35
2018-06-17T15:56:33.936Z,9.53
2018-06-17T15:59:08.522Z,7.72
2018-06-17T16:01:42.744Z,7.55
2018-06-17T16:04:16.869Z,8.13
2018-06-17T16:06:53.345Z,9.20
2018-06-17T16:09:27.324Z,9.15
2018-06-17T16:12:06.870Z,6.00
2018-06-17T16:14:46.505Z,5.92
2018-06-17T16:17:26.225Z,9.85
2018-06-17T16:21:08.752Z,7.90
2018-06-17T16:23:43.379Z,6.47
2018-06-17T16:26:17.695Z,7.00
2018-06-17T16:28:51.699Z,5.47
2018-06-17T16:31:25.777Z,5.92
2018-06-17T16:33:59.620Z,9.10
2018-06-17T16:36:33.806Z,8.00
2018-06-17T16:39:09.099Z,6.67
2018-06-17T16:41:43.490Z,7.40
2018-06-17T16:44:17.493Z,6.20
2018-06-17T16:46:51.790Z,6.47
2018-06-17T16:49:25.861Z,7.35
2018-06-17T16:52:05.306Z,6.37
2018-06-17T16:54:44.781Z,7.37
2018-06-17T16:58:26.417Z,6.37
2018-06-17T17:01:00.679Z,4.10
2018-06-17T17:03:34.526Z,6.47
2018-06-17T17:06:09.037Z,6.95
2018-06-17T17:08:44.567Z,9.03
2018-06-17T17:11:18.851Z,6.40
2018-06-17T17:13:52.795Z,7.37
2018-06-17T17:16:27.056Z,7.83
2018-06-17T17:19:01.202Z,6.22
2018-06-17T17:21:35.451Z,3.90
2018-06-17T17:24:09.594Z,5.95
2018-06-17T17:26:44.063Z,5.90
2018-06-17T17:29:18.441Z,6.10
2018-06-17T17:31:58.230Z,4.55
2018-06-17T17:34:38.025Z,5.87
2018-06-17T17:38:15.386Z,6.83
2018-06-17T17:40:52.907Z,4.85
2018-06-17T17:43:27.435Z,3.25
2018-06-17T17:46:07.236Z,6.50
2018-06-17T17:48:42.156Z,4.85
2018-06-17T17:51:16.017Z,4.95
2018-06-17T17:53:50.421Z,5.12
2018-06-17T17:56:24.314Z,3.27
2018-06-17T17:58:58.352Z,4.35
2018-06-17T18:01:32.376Z,3.47
2018-06-17T18:04:06.356Z,5.67
2018-06-17T18:06:40.712Z,4.80
2018-06-17T18:09:15.491Z,3.05
2018-06-17T18:11:49.567Z,6.03
2018-06-17T18:14:23.360Z,6.50
2018-06-17T18:17:02.381Z,3.00
2018-06-17T18:19:40.512Z,4.40
2018-06-17T18:22:14.570Z,6.53
2018-06-17T18:24:54.614Z,4.90
2018-06-17T18:27:38.702Z,4.22
2018-06-17T18:30:19.599Z,5.00
2018-06-17T18:32:59.390Z,7.00
2018-06-17T18:35:39.931Z,5.75
2018-06-17T18:38:13.921Z,4.08
2018-06-17T18:40:48.796Z,3.83
2018-06-17T18:43:23.395Z,4.08
2018-06-17T18:45:57.592Z,5.87
2018-06-17T18:48:32.139Z,5.10
2018-06-17T18:51:06.587Z,5.65
2018-06-17T18:53:41.226Z,6.62
2018-06-17T18:56:15.216Z,3.80
2018-06-17T18:58:49.470Z,7.15
2018-06-17T19:01:23.657Z,6.17
2018-06-17T19:03:57.945Z,5.92
2018-06-17T19:06:32.204Z,5.58
2018-06-17T19:09:12.980Z,5.47
2018-06-17T19:11:52.662Z,3.58
2018-06-17T19:14:32.306Z,7.08
2018-06-17T19:17:12.283Z,5.12
2018-06-17T19:19:47.150Z,5.37
2018-06-17T19:22:21.816Z,4.67
2018-06-17T19:24:56.015Z,6.95
2018-06-17T19:27:30.791Z,7.03
2018-06-17T19:30:08.274Z,4.40
2018-06-17T19:32:42.572Z,8.05
2018-06-17T19:35:16.608Z,5.50
2018-06-17T19:37:50.661Z,7.67
2018-06-17T19:40:24.709Z,4.40
2018-06-17T19:42:59.534Z,5.12
2018-06-17T19:45:34.326Z,6.53
2018-06-17T19:48:08.638Z,4.87
2018-06-17T19:50:48.070Z,7.20
2018-06-17T19:53:28.130Z,6.60
2018-06-17T19:56:07.761Z,4.47
2018-06-17T19:58:47.021Z,3.95
2018-06-17T20:01:21.280Z,5.15
2018-06-17T20:03:55.186Z,4.55
2018-06-17T20:06:29.167Z,5.80
2018-06-17T20:09:05.010Z,4.50
2018-06-17T20:11:39.335Z,5.95
2018-06-17T20:14:13.282Z,6.65
2018-06-17T20:16:47.705Z,8.08
2018-06-17T20:19:21.769Z,5.00
2018-06-17T20:21:56.186Z,5.57
2018-06-17T20:24:30.716Z,5.53
2018-06-17T20:27:05.016Z,4.95
2018-06-17T20:29:38.871Z,8.65
2018-06-17T20:32:18.625Z,6.45
2018-06-17T20:34:58.182Z,4.28
2018-06-17T20:37:37.434Z,3.92
2018-06-17T20:41:15.016Z,3.52
2018-06-17T20:43:51.307Z,3.77
2018-06-17T20:46:25.535Z,4.70
2018-06-17T20:49:00.109Z,6.07
2018-06-17T20:51:34.839Z,5.47
2018-06-17T20:54:08.943Z,5.07
2018-06-17T20:56:43.059Z,5.30
2018-06-17T20:59:17.634Z,5.93
2018-06-17T21:01:51.768Z,5.10
2018-06-17T21:04:26.515Z,6.23
2018-06-17T21:07:00.395Z,4.93
2018-06-17T21:09:34.425Z,5.37
2018-06-17T21:12:08.528Z,4.93
2018-06-17T21:14:42.835Z,6.17
2018-06-17T21:17:16.705Z,5.77
2018-06-17T21:19:56.224Z,4.33
2018-06-17T21:22:35.843Z,5.37
2018-06-17T21:25:15.366Z,3.97
2018-06-17T21:27:51.158Z,5.33
2018-06-17T21:30:25.196Z,7.27
2018-06-17T21:32:59.403Z,5.97
2018-06-17T21:35:33.371Z,6.87
2018-06-17T21:38:07.363Z,5.73
2018-06-17T21:40:41.357Z,7.20
2018-06-17T21:43:15.280Z,5.73
2018-06-17T21:45:49.490Z,6.93
2018-06-17T21:48:23.334Z,4.63
2018-06-17T21:50:57.344Z,3.77
2018-06-17T21:53:31.589Z,6.17
2018-06-17T21:56:05.634Z,6.40
2018-06-17T21:58:45.363Z,5.80
2018-06-17T22:01:19.749Z,8.67
2018-06-17T22:03:58.144Z,5.90
2018-06-17T22:09:18.360Z,7.37
2018-06-17T22:11:57.904Z,7.10
2018-06-17T22:14:37.575Z,6.83
2018-06-17T22:17:17.249Z,9.50
2018-06-17T22:19:50.934Z,6.77
2018-06-17T22:22:24.973Z,6.80
2018-06-17T22:24:59.457Z,8.37
2018-06-17T22:27:33.400Z,6.70
2018-06-17T22:30:07.478Z,8.83
2018-06-17T22:32:41.400Z,9.13
2018-06-17T22:35:15.562Z,6.10
2018-06-17T22:37:49.550Z,8.00
2018-06-17T22:40:23.627Z,9.07
2018-06-17T22:42:58.343Z,7.33
2018-06-17T22:45:32.085Z,6.23
2018-06-17T22:48:05.769Z,11.27
2018-06-17T22:50:39.937Z,8.00
2018-06-17T22:53:25.018Z,10.23
2018-06-17T22:55:59.715Z,11.17
2018-06-17T22:58:39.536Z,9.97
